Time;durP1;ratioP1;P1;durP2;ratioP2;P2;SDS_P1;SDS_P2;PMS_P1;PMS_P2;Temp;Humidity;BMP_temperature;BMP_pressure;BME280_temperature;BME280_humidity;BME280_pressure;Samples;Min_cycle;Max_cycle;Signal;HPM_P1;HPM_P2
2021/06/19 00:02:08;;;;;;;12.43;3.97;;;24.90;60.30;;;;;;5063655;28;20021;-69
2021/06/19 00:04:34;;;;;;;16.10;3.90;;;24.90;60.30;;;;;;5062936;28;20430;-69
2021/06/19 00:07:03;;;;;;;17.25;3.67;;;24.80;60.40;;;;;;5063322;28;20032;-68
2021/06/19 00:09:28;;;;;;;11.88;4.07;;;24.80;60.50;;;;;;5064299;28;20032;-69
2021/06/19 00:11:54;;;;;;;12.43;3.55;;;24.80;60.90;;;;;;5067012;28;20036;-69
2021/06/19 00:14:20;;;;;;;12.90;3.03;;;24.70;61.10;;;;;;5064863;28;20029;-69
2021/06/19 00:16:47;;;;;;;11.85;3.75;;;24.70;61.50;;;;;;5064182;28;20040;-69
2021/06/19 00:19:14;;;;;;;11.25;3.50;;;24.60;61.90;;;;;;5066044;28;20641;-69
2021/06/19 00:21:41;;;;;;;12.65;3.83;;;24.50;62.20;;;;;;5061338;28;20115;-69
2021/06/19 00:24:09;;;;;;;11.82;4.53;;;24.50;62.60;;;;;;5063330;28;20087;-69
2021/06/19 00:26:34;;;;;;;32.42;4.95;;;24.50;63.20;;;;;;5065170;28;20493;-69
2021/06/19 00:29:00;;;;;;;20.20;5.40;;;24.50;65.70;;;;;;5066761;28;20035;-69
2021/06/19 00:31:25;;;;;;;13.25;4.57;;;24.40;68.00;;;;;;5072400;28;20020;-70
2021/06/19 00:33:51;;;;;;;19.90;4.95;;;24.20;68.50;;;;;;5065708;28;20509;-69
2021/06/19 00:36:17;;;;;;;21.13;5.05;;;24.20;69.00;;;;;;5046083;28;20082;-69
2021/06/19 00:38:42;;;;;;;21.50;5.70;;;24.10;69.20;;;;;;5060515;28;20104;-69
2021/06/19 00:41:08;;;;;;;21.33;5.70;;;24.00;69.30;;;;;;5064338;28;20073;-69
2021/06/19 00:43:34;;;;;;;17.05;5.10;;;23.90;69.10;;;;;;5064506;28;20458;-69
2021/06/19 00:46:00;;;;;;;17.85;5.10;;;23.80;69.40;;;;;;5065771;28;20024;-69
2021/06/19 00:48:26;;;;;;;23.88;4.85;;;23.80;69.70;;;;;;5061983;28;20079;-69
2021/06/19 00:50:52;;;;;;;15.35;4.40;;;23.80;69.60;;;;;;5061990;28;20041;-69
2021/06/19 00:53:17;;;;;;;12.60;3.92;;;23.70;70.10;;;;;;5065324;28;20047;-69
2021/06/19 00:55:43;;;;;;;15.75;4.15;;;23.70;69.20;;;;;;5061725;28;20664;-69
2021/06/19 00:58:09;;;;;;;21.05;4.93;;;23.80;68.40;;;;;;5065692;28;20056;-69
2021/06/19 01:00:35;;;;;;;14.00;4.10;;;23.90;67.90;;;;;;5063655;28;20050;-69
2021/06/19 01:03:00;;;;;;;13.45;4.10;;;23.90;67.80;;;;;;5065337;28;20405;-69
2021/06/19 01:05:28;;;;;;;15.18;4.20;;;23.90;67.80;;;;;;5061670;28;20389;-69
2021/06/19 01:07:59;;;;;;;12.45;3.80;;;24.00;68.40;;;;;;5072049;28;20036;-70
2021/06/19 01:10:26;;;;;;;11.50;3.35;;;24.00;69.50;;;;;;5073275;28;20032;-70
2021/06/19 01:12:52;;;;;;;16.13;3.97;;;23.90;70.10;;;;;;5073236;28;20040;-69
2021/06/19 01:15:18;;;;;;;15.43;4.25;;;23.80;71.20;;;;;;5073833;28;20032;-69
2021/06/19 01:17:44;;;;;;;16.70;4.40;;;23.60;72.10;;;;;;5073007;28;20132;-69
2021/06/19 01:20:16;;;;;;;10.68;4.30;;;23.50;73.30;;;;;;5073431;28;20178;-69
2021/06/19 01:22:44;;;;;;;15.82;4.32;;;23.30;73.90;;;;;;5072903;28;20031;-69
2021/06/19 01:25:22;;;;;;;15.57;4.60;;;23.20;74.60;;;;;;5073701;28;20392;-69
2021/06/19 01:27:49;;;;;;;18.05;5.15;;;23.10;75.10;;;;;;5055014;28;20032;-69
2021/06/19 01:30:16;;;;;;;13.80;4.35;;;23.00;75.40;;;;;;5070869;28;20029;-69
2021/06/19 01:32:42;;;;;;;22.02;5.13;;;23.00;75.40;;;;;;5072626;28;20025;-69
2021/06/19 01:35:09;;;;;;;12.27;4.43;;;22.90;74.90;;;;;;5055240;28;20519;-69
2021/06/19 01:37:35;;;;;;;18.17;4.60;;;23.00;74.60;;;;;;5072850;28;20082;-69
2021/06/19 01:40:09;;;;;;;18.67;4.53;;;23.00;74.50;;;;;;5072984;28;20032;-69
2021/06/19 01:42:40;;;;;;;15.07;5.20;;;23.00;74.30;;;;;;5072570;28;20059;-69
2021/06/19 01:45:14;;;;;;;17.95;4.13;;;22.90;74.30;;;;;;5072858;28;20393;-69
2021/06/19 01:47:40;;;;;;;14.88;4.40;;;23.00;74.00;;;;;;5072343;28;20404;-69
2021/06/19 01:50:08;;;;;;;11.60;4.22;;;22.90;74.00;;;;;;5072840;28;20107;-69
2021/06/19 01:52:33;;;;;;;14.85;4.13;;;22.90;73.80;;;;;;5063993;28;20052;-69
2021/06/19 01:54:59;;;;;;;16.00;5.30;;;23.00;73.70;;;;;;5073231;28;20056;-68
2021/06/19 01:57:25;;;;;;;18.30;4.20;;;23.00;73.40;;;;;;5072245;28;20107;-69
2021/06/19 01:59:59;;;;;;;13.52;4.32;;;23.00;73.30;;;;;;5053980;28;20037;-70
2021/06/19 02:02:25;;;;;;;20.30;5.53;;;23.10;73.30;;;;;;5070892;28;20531;-69
2021/06/19 02:04:51;;;;;;;16.05;5.00;;;23.10;73.00;;;;;;5072351;28;20036;-69
2021/06/19 02:07:16;;;;;;;21.45;5.53;;;23.20;73.40;;;;;;5072620;28;20036;-69
2021/06/19 02:09:42;;;;;;;12.75;5.18;;;23.20;73.30;;;;;;5067903;28;20322;-69
2021/06/19 02:12:08;;;;;;;19.23;5.75;;;23.20;73.40;;;;;;5072306;28;20116;-69
2021/06/19 02:14:34;;;;;;;14.45;4.65;;;23.20;73.10;;;;;;5071567;28;20386;-68
2021/06/19 02:16:59;;;;;;;18.73;4.88;;;23.20;72.80;;;;;;5072441;28;20028;-68
2021/06/19 02:19:25;;;;;;;16.35;4.53;;;23.20;72.90;;;;;;5071841;28;20028;-69
2021/06/19 02:21:50;;;;;;;15.90;4.50;;;23.20;73.90;;;;;;5071298;28;20493;-69
2021/06/19 02:24:16;;;;;;;9.07;3.97;;;23.20;74.50;;;;;;5072642;28;20501;-69
2021/06/19 02:26:42;;;;;;;17.88;4.53;;;23.20;74.90;;;;;;5071084;28;20044;-69
2021/06/19 02:29:07;;;;;;;24.13;5.15;;;23.20;74.30;;;;;;5072487;28;20025;-69
2021/06/19 02:31:33;;;;;;;15.05;4.15;;;23.20;74.50;;;;;;5053256;28;20591;-70
2021/06/19 02:33:59;;;;;;;14.27;5.20;;;23.20;73.80;;;;;;5071785;28;20108;-68
2021/06/19 02:36:24;;;;;;;10.25;4.45;;;23.20;74.00;;;;;;5071809;28;20485;-70
2021/06/19 02:38:50;;;;;;;11.52;4.43;;;23.20;74.00;;;;;;5071744;28;20655;-69
2021/06/19 02:41:16;;;;;;;8.60;3.75;;;23.20;74.60;;;;;;5072045;28;20025;-69
2021/06/19 02:43:42;;;;;;;16.10;4.82;;;23.10;75.20;;;;;;5071306;28;20106;-70
2021/06/19 02:46:08;;;;;;;15.32;4.60;;;23.10;75.70;;;;;;5071905;28;20043;-69
2021/06/19 02:48:35;;;;;;;9.02;4.30;;;23.00;76.40;;;;;;5071288;28;20477;-69
2021/06/19 02:51:01;;;;;;;10.65;3.80;;;22.90;76.90;;;;;;5071253;28;20036;-70
2021/06/19 02:53:27;;;;;;;17.17;5.38;;;22.80;77.80;;;;;;5071244;28;20172;-69
2021/06/19 02:55:55;;;;;;;19.23;5.72;;;22.70;81.30;;;;;;5071898;28;20476;-69
2021/06/19 02:58:20;;;;;;;21.05;5.47;;;22.70;84.40;;;;;;5071937;28;20028;-69
2021/06/19 03:00:46;;;;;;;14.80;5.22;;;22.50;85.60;;;;;;5064549;28;20159;-69
2021/06/19 03:03:12;;;;;;;11.55;5.05;;;22.40;84.90;;;;;;5071742;28;20465;-69
2021/06/19 03:05:38;;;;;;;9.88;4.40;;;22.30;84.50;;;;;;5070683;28;20024;-69
2021/06/19 03:08:05;;;;;;;16.05;5.25;;;22.20;84.90;;;;;;5071432;28;20041;-69
2021/06/19 03:10:33;;;;;;;15.75;4.47;;;22.10;85.50;;;;;;5070329;28;20452;-69
2021/06/19 03:12:59;;;;;;;8.25;4.35;;;22.10;86.70;;;;;;5071859;28;20032;-69
2021/06/19 03:15:26;;;;;;;13.38;5.18;;;22.10;88.20;;;;;;5071215;28;20028;-69
2021/06/19 03:17:52;;;;;;;12.07;5.03;;;22.00;90.20;;;;;;5071156;28;20060;-69
2021/06/19 03:20:19;;;;;;;14.15;5.20;;;22.00;90.30;;;;;;5071139;28;20484;-69
2021/06/19 03:23:01;;;;;;;14.68;5.70;;;22.00;90.30;;;;;;5070444;28;20024;-69
2021/06/19 03:25:29;;;;;;;16.08;5.18;;;22.00;90.20;;;;;;5071363;28;20059;-69
2021/06/19 03:27:56;;;;;;;17.88;7.10;;;22.00;90.10;;;;;;5062685;28;20037;-69
2021/06/19 03:30:23;;;;;;;17.55;5.32;;;22.00;90.60;;;;;;5066416;28;20033;-69
2021/06/19 03:32:49;;;;;;;13.38;5.88;;;22.00;91.90;;;;;;5069098;28;20032;-69
2021/06/19 03:35:16;;;;;;;19.70;6.53;;;22.00;92.60;;;;;;5070849;28;20020;-69
2021/06/19 03:37:44;;;;;;;14.27;6.07;;;22.00;93.30;;;;;;5070422;28;20044;-69
2021/06/19 03:40:10;;;;;;;14.98;6.00;;;21.90;93.60;;;;;;5070970;28;20444;-69
2021/06/19 03:42:37;;;;;;;13.82;6.25;;;21.90;93.80;;;;;;5070784;28;20029;-69
2021/06/19 03:45:05;;;;;;;13.82;6.15;;;21.80;93.90;;;;;;5071156;28;20104;-69
2021/06/19 03:47:30;;;;;;;17.85;5.75;;;21.80;94.30;;;;;;5070548;28;20198;-68
2021/06/19 03:49:56;;;;;;;18.20;6.55;;;21.80;94.40;;;;;;5070364;28;20086;-69
2021/06/19 03:52:22;;;;;;;20.70;7.25;;;21.70;95.10;;;;;;5070648;28;20363;-68
2021/06/19 03:54:48;;;;;;;14.18;5.70;;;21.70;95.50;;;;;;5070309;28;20031;-69
2021/06/19 03:57:28;;;;;;;21.33;6.75;;;21.60;96.00;;;;;;5070692;28;20029;-69
2021/06/19 03:59:54;;;;;;;20.08;7.05;;;21.60;96.70;;;;;;5070718;28;20458;-69
2021/06/19 04:02:21;;;;;;;14.38;6.10;;;21.60;97.10;;;;;;5070934;28;20032;-70
2021/06/19 04:04:47;;;;;;;22.08;7.63;;;21.60;97.50;;;;;;5069975;28;20036;-69
2021/06/19 04:07:12;;;;;;;13.90;6.43;;;21.50;97.80;;;;;;5036172;28;20393;-69
2021/06/19 04:09:38;;;;;;;13.73;6.72;;;21.60;98.00;;;;;;5070172;28;20028;-69
2021/06/19 04:12:05;;;;;;;18.10;6.80;;;21.60;98.10;;;;;;5052737;28;20117;-69
2021/06/19 04:14:31;;;;;;;15.93;6.88;;;21.60;98.40;;;;;;5070148;28;20103;-69
2021/06/19 04:16:57;;;;;;;13.27;6.05;;;21.60;98.30;;;;;;5070800;28;20462;-70
2021/06/19 04:19:23;;;;;;;15.10;6.60;;;21.60;98.70;;;;;;5070728;28;20028;-70
2021/06/19 04:21:48;;;;;;;16.17;6.72;;;21.70;98.70;;;;;;5069387;28;20480;-70
2021/06/19 04:24:14;;;;;;;18.52;6.65;;;21.70;99.20;;;;;;5070959;28;20440;-70
2021/06/19 04:26:40;;;;;;;15.20;7.22;;;21.70;99.20;;;;;;5069927;28;20062;-69
2021/06/19 04:29:05;;;;;;;12.80;6.50;;;21.70;99.20;;;;;;5070823;28;20086;-69
2021/06/19 04:31:31;;;;;;;14.80;6.55;;;21.70;99.40;;;;;;5065549;28;20440;-69
2021/06/19 04:33:58;;;;;;;13.68;6.18;;;21.70;99.50;;;;;;5070586;28;20477;-69
2021/06/19 04:36:25;;;;;;;14.27;6.85;;;21.70;99.60;;;;;;5070594;28;20055;-69
2021/06/19 04:38:51;;;;;;;18.75;6.45;;;21.70;99.60;;;;;;5069779;28;20097;-70
2021/06/19 04:46:52;;;;;;;14.18;6.93;;;22.10;98.70;;;;;;5069535;28;20041;-69
2021/06/19 04:49:18;;;;;;;14.43;7.03;;;22.20;98.20;;;;;;5073307;28;20389;-69
2021/06/19 04:51:45;;;;;;;17.75;6.85;;;22.30;97.70;;;;;;5073736;28;20036;-69
2021/06/19 04:54:12;;;;;;;10.18;5.07;;;22.50;97.20;;;;;;5074187;28;20573;-69
2021/06/19 04:56:41;;;;;;;10.43;5.88;;;22.60;96.00;;;;;;5073328;28;20070;-69
2021/06/19 04:59:07;;;;;;;14.77;6.50;;;22.70;95.20;;;;;;5074251;28;20032;-69
2021/06/19 05:01:33;;;;;;;13.45;6.30;;;22.90;94.60;;;;;;5072684;28;20270;-69
2021/06/19 05:04:01;;;;;;;20.42;6.78;;;23.00;93.80;;;;;;5074082;28;20517;-69
2021/06/19 05:06:28;;;;;;;14.43;5.93;;;23.20;93.60;;;;;;5074096;28;20032;-69
2021/06/19 05:08:53;;;;;;;11.82;5.68;;;23.20;93.60;;;;;;5071357;28;20099;-69
2021/06/19 05:11:19;;;;;;;11.07;6.22;;;23.30;93.70;;;;;;5073952;28;20098;-69
2021/06/19 05:13:45;;;;;;;13.95;6.13;;;23.30;93.70;;;;;;5073230;28;20039;-69
2021/06/19 05:16:11;;;;;;;11.23;6.50;;;23.30;93.80;;;;;;5073908;28;20082;-69
2021/06/19 05:18:37;;;;;;;11.50;6.25;;;23.30;93.60;;;;;;5073150;28;20420;-69
2021/06/19 05:21:03;;;;;;;12.00;6.28;;;23.30;93.60;;;;;;5073355;28;20060;-68
2021/06/19 05:23:29;;;;;;;12.90;6.55;;;23.40;93.10;;;;;;5073679;28;20146;-69
2021/06/19 05:25:54;;;;;;;15.15;6.78;;;23.40;92.80;;;;;;5072862;28;20115;-69
2021/06/19 05:28:20;;;;;;;15.50;7.05;;;23.50;92.70;;;;;;5073692;28;20098;-69
2021/06/19 05:30:45;;;;;;;13.85;6.07;;;23.70;92.80;;;;;;5069848;28;20111;-69
2021/06/19 05:33:11;;;;;;;11.18;6.47;;;23.80;92.60;;;;;;5073510;28;20052;-69
2021/06/19 05:35:37;;;;;;;14.52;6.70;;;23.80;91.50;;;;;;5072871;28;20055;-69
2021/06/19 05:38:02;;;;;;;11.18;6.28;;;23.90;91.40;;;;;;5073313;28;20504;-69
2021/06/19 05:40:28;;;;;;;16.67;6.47;;;24.00;91.30;;;;;;5073110;28;20081;-69
2021/06/19 05:42:54;;;;;;;11.18;6.40;;;24.00;90.60;;;;;;5072557;28;20705;-69
2021/06/19 05:45:20;;;;;;;11.55;6.70;;;24.10;90.20;;;;;;5073096;28;20025;-69
2021/06/19 05:47:45;;;;;;;14.15;6.88;;;24.20;89.90;;;;;;5072257;28;20102;-70
2021/06/19 05:50:12;;;;;;;10.63;6.22;;;24.20;89.90;;;;;;5073044;28;20423;-69
2021/06/19 05:52:37;;;;;;;14.73;6.00;;;24.20;89.70;;;;;;5072120;28;20044;-69
2021/06/19 05:55:05;;;;;;;9.77;5.72;;;24.20;89.40;;;;;;5055189;28;20040;-70
2021/06/19 05:57:31;;;;;;;16.45;6.15;;;24.20;89.50;;;;;;5072947;28;20052;-69
2021/06/19 05:59:56;;;;;;;13.35;5.95;;;24.20;89.20;;;;;;5071920;28;20029;-69
2021/06/19 06:02:22;;;;;;;14.90;6.25;;;24.20;89.00;;;;;;5073124;28;20024;-69
2021/06/19 06:04:48;;;;;;;13.13;6.10;;;24.30;88.20;;;;;;5071999;28;20021;-69
2021/06/19 06:07:13;;;;;;;13.02;5.90;;;24.30;87.30;;;;;;5073176;28;20029;-69
2021/06/19 06:09:39;;;;;;;12.77;5.95;;;24.40;86.70;;;;;;5072426;28;20025;-70
2021/06/19 06:12:07;;;;;;;16.75;6.75;;;24.50;85.60;;;;;;5072765;28;20028;-69
2021/06/19 06:14:32;;;;;;;16.25;6.20;;;24.60;84.20;;;;;;5071884;28;20654;-70
2021/06/19 06:16:58;;;;;;;15.20;7.75;;;24.70;84.50;;;;;;5071639;28;20028;-70
2021/06/19 06:19:23;;;;;;;16.25;6.07;;;24.80;84.70;;;;;;5072550;28;20108;-69
2021/06/19 06:21:50;;;;;;;15.07;6.80;;;24.90;84.30;;;;;;5071774;28;20111;-70
2021/06/19 06:24:16;;;;;;;16.42;6.43;;;25.00;83.70;;;;;;5072369;28;20465;-70
2021/06/19 06:26:43;;;;;;;14.20;6.55;;;25.10;83.40;;;;;;5071684;28;20040;-70
2021/06/19 06:29:08;;;;;;;12.15;6.13;;;25.30;81.20;;;;;;5072290;28;20056;-70
2021/06/19 06:31:34;;;;;;;14.60;6.60;;;25.30;80.70;;;;;;5066250;28;20059;-70
2021/06/19 06:34:00;;;;;;;11.55;6.38;;;25.50;80.70;;;;;;5072199;28;20032;-70
2021/06/19 06:36:26;;;;;;;13.10;5.80;;;25.50;79.80;;;;;;5072307;28;20028;-70
2021/06/19 06:38:51;;;;;;;11.05;5.60;;;25.60;78.70;;;;;;5071443;28;20807;-70
2021/06/19 06:41:17;;;;;;;12.75;5.72;;;25.70;78.00;;;;;;5071913;28;20501;-70
2021/06/19 06:43:43;;;;;;;13.93;6.07;;;25.70;77.40;;;;;;5071326;28;20035;-71
2021/06/19 06:46:08;;;;;;;12.45;6.20;;;25.90;77.00;;;;;;5071543;28;20037;-70
2021/06/19 06:48:34;;;;;;;12.13;5.88;;;26.00;76.60;;;;;;5071741;28;20031;-70
2021/06/19 06:51:00;;;;;;;16.48;6.47;;;26.10;76.10;;;;;;5071467;28;20504;-70
2021/06/19 06:53:25;;;;;;;16.30;6.55;;;26.20;76.10;;;;;;5072154;28;20052;-70
2021/06/19 06:55:51;;;;;;;15.27;6.50;;;26.30;75.40;;;;;;5070625;28;20028;-70
2021/06/19 06:58:17;;;;;;;9.93;5.50;;;26.50;74.00;;;;;;5071458;28;20040;-71
2021/06/19 07:00:42;;;;;;;15.95;6.03;;;26.50;73.70;;;;;;5070828;28;20080;-70
2021/06/19 07:03:08;;;;;;;14.90;5.90;;;26.50;72.00;;;;;;5072280;28;20516;-70
2021/06/19 07:05:34;;;;;;;17.92;5.95;;;26.50;71.90;;;;;;5071922;28;20020;-70
2021/06/19 07:07:59;;;;;;;12.65;5.00;;;26.50;72.40;;;;;;5071860;28;20033;-70
2021/06/19 07:10:25;;;;;;;13.50;5.50;;;26.50;71.60;;;;;;5071086;28;20024;-71
2021/06/19 07:12:51;;;;;;;16.80;5.55;;;26.50;71.80;;;;;;5067272;28;20045;-71
2021/06/19 07:15:18;;;;;;;11.82;5.53;;;26.70;70.80;;;;;;5058855;28;20028;-70
2021/06/19 07:17:46;;;;;;;10.88;5.00;;;26.70;71.20;;;;;;5062242;28;20032;-70
2021/06/19 07:20:12;;;;;;;11.90;5.15;;;26.70;69.50;;;;;;5058492;28;20059;-71
2021/06/19 07:22:40;;;;;;;10.43;4.82;;;26.80;70.10;;;;;;5061614;28;20025;-70
2021/06/19 07:25:07;;;;;;;11.52;5.32;;;26.80;70.10;;;;;;5062237;28;20056;-71
2021/06/19 07:27:33;;;;;;;9.13;4.97;;;26.90;70.10;;;;;;5058273;28;20046;-69
2021/06/19 07:29:58;;;;;;;9.35;4.68;;;27.10;68.80;;;;;;5060032;28;20024;-71
2021/06/19 07:32:24;;;;;;;13.02;5.47;;;27.20;68.90;;;;;;5065600;28;20462;-71
2021/06/19 07:34:50;;;;;;;13.52;5.32;;;27.40;68.80;;;;;;5060216;28;20029;-69
2021/06/19 07:37:16;;;;;;;9.57;5.53;;;27.60;67.10;;;;;;5062907;28;20029;-71
2021/06/19 07:39:42;;;;;;;12.82;5.18;;;27.60;66.40;;;;;;5058922;28;20085;-69
2021/06/19 07:42:08;;;;;;;10.27;5.47;;;27.70;67.30;;;;;;5057372;28;20078;-71
2021/06/19 07:44:33;;;;;;;8.75;5.43;;;27.80;66.30;;;;;;5057374;28;20029;-72
2021/06/19 07:46:59;;;;;;;9.10;5.10;;;27.80;65.90;;;;;;5060313;28;20051;-74
2021/06/19 07:49:28;;;;;;;13.02;5.60;;;27.80;66.10;;;;;;5058225;28;20071;-71
2021/06/19 07:51:53;;;;;;;11.73;5.75;;;27.90;66.80;;;;;;5060581;28;20107;-71
2021/06/19 07:54:19;;;;;;;14.05;5.90;;;28.10;66.30;;;;;;5061448;28;20501;-70
2021/06/19 07:56:47;;;;;;;13.13;5.68;;;28.20;66.10;;;;;;5060697;28;20115;-70
2021/06/19 07:59:13;;;;;;;12.70;5.60;;;28.30;65.50;;;;;;5059607;28;20025;-71
2021/06/19 08:01:48;;;;;;;16.52;6.07;;;28.40;65.40;;;;;;5061337;28;20081;-69
2021/06/19 08:04:14;;;;;;;17.02;6.00;;;28.50;65.20;;;;;;5057633;28;20029;-70
2021/06/19 08:06:39;;;;;;;10.88;6.00;;;28.50;64.80;;;;;;5057505;28;20119;-70
2021/06/19 08:09:05;;;;;;;18.20;5.30;;;28.50;64.50;;;;;;5062625;28;20047;-70
2021/06/19 08:11:31;;;;;;;17.05;6.65;;;28.50;64.40;;;;;;5061220;28;20593;-71
2021/06/19 08:13:57;;;;;;;11.98;6.28;;;28.60;64.50;;;;;;5060959;28;20492;-69
2021/06/19 08:16:23;;;;;;;10.77;5.93;;;28.60;64.40;;;;;;5059767;28;20021;-67
2021/06/19 08:18:49;;;;;;;18.08;6.05;;;28.60;64.80;;;;;;5057229;28;20040;-67
2021/06/19 08:21:15;;;;;;;10.50;5.75;;;28.70;64.50;;;;;;5060860;28;20025;-67
2021/06/19 08:23:41;;;;;;;10.38;5.72;;;28.80;64.70;;;;;;5043763;28;20037;-68
2021/06/19 08:26:07;;;;;;;18.52;6.40;;;29.00;64.50;;;;;;5066771;28;20027;-68
2021/06/19 08:28:34;;;;;;;13.38;6.80;;;29.20;63.30;;;;;;5065868;28;20028;-68
2021/06/19 08:31:01;;;;;;;16.23;6.80;;;29.30;62.90;;;;;;5063938;28;20043;-67
2021/06/19 08:33:27;;;;;;;14.45;6.38;;;29.30;62.20;;;;;;5067821;28;20485;-68
2021/06/19 08:35:52;;;;;;;14.05;6.25;;;29.40;62.40;;;;;;5062298;28;20032;-67
2021/06/19 08:38:18;;;;;;;15.23;6.82;;;29.40;62.30;;;;;;5065316;28;20037;-69
2021/06/19 08:40:44;;;;;;;16.27;6.55;;;29.50;62.30;;;;;;5060600;28;20105;-67
2021/06/19 08:43:09;;;;;;;14.77;6.07;;;29.50;61.90;;;;;;5066114;28;20097;-68
2021/06/19 08:45:35;;;;;;;17.27;7.00;;;29.50;62.40;;;;;;5062734;28;20100;-68
2021/06/19 08:48:02;;;;;;;11.90;6.60;;;29.60;62.20;;;;;;5062639;28;20064;-68
2021/06/19 08:50:29;;;;;;;13.32;6.30;;;29.80;61.70;;;;;;5063164;28;20481;-69
2021/06/19 08:52:57;;;;;;;11.93;6.72;;;29.80;61.50;;;;;;5058436;28;20037;-69
2021/06/19 08:55:22;;;;;;;13.68;6.40;;;29.90;62.70;;;;;;5063058;28;20049;-70
2021/06/19 08:57:48;;;;;;;17.48;6.38;;;29.90;60.80;;;;;;5066098;28;20078;-69
2021/06/19 09:00:16;;;;;;;12.43;6.20;;;29.90;61.10;;;;;;5065928;28;20029;-69
2021/06/19 09:02:43;;;;;;;17.25;6.10;;;30.00;60.70;;;;;;5063724;28;20044;-69
2021/06/19 09:05:14;;;;;;;13.38;6.70;;;30.00;61.40;;;;;;5062316;28;20091;-69
2021/06/19 09:07:45;;;;;;;11.80;6.70;;;30.00;60.90;;;;;;5065321;28;20102;-69
2021/06/19 09:10:25;;;;;;;11.52;5.90;;;30.00;60.90;;;;;;5065691;28;20037;-70
2021/06/19 09:13:07;;;;;;;13.98;6.30;;;30.10;61.20;;;;;;5061845;28;20025;-67
2021/06/19 09:15:50;;;;;;;12.55;6.60;;;30.20;60.50;;;;;;5065335;28;20065;-68
2021/06/19 09:18:15;;;;;;;14.25;7.03;;;30.40;60.00;;;;;;5047964;28;20375;-67
2021/06/19 09:20:47;;;;;;;17.38;6.97;;;30.50;60.10;;;;;;5063231;28;20198;-67
2021/06/19 09:23:14;;;;;;;15.02;6.97;;;30.50;60.50;;;;;;5062119;28;20025;-67
2021/06/19 09:25:40;;;;;;;13.95;7.07;;;30.50;60.20;;;;;;5064758;28;20017;-67
2021/06/19 09:28:08;;;;;;;13.98;7.03;;;30.60;60.20;;;;;;5060886;28;20039;-67
2021/06/19 09:30:34;;;;;;;14.75;7.53;;;30.50;59.90;;;;;;5063183;28;20024;-67
2021/06/19 09:33:04;;;;;;;14.43;6.85;;;30.30;61.10;;;;;;5062224;28;20024;-67
2021/06/19 09:35:39;;;;;;;10.38;6.28;;;30.30;60.50;;;;;;5061738;28;20033;-67
2021/06/19 09:38:11;;;;;;;12.82;5.97;;;30.20;60.80;;;;;;5062471;28;20031;-67
2021/06/19 09:40:45;;;;;;;14.02;6.10;;;30.20;60.80;;;;;;5069285;28;20021;-67
2021/06/19 09:43:28;;;;;;;17.88;6.78;;;30.40;60.10;;;;;;5064635;28;20111;-72
2021/06/19 09:46:09;;;;;;;16.30;6.25;;;30.70;59.90;;;;;;5054862;28;20461;-71
2021/06/19 09:48:40;;;;;;;9.50;6.20;;;31.00;59.30;;;;;;5065401;28;20064;-72
2021/06/19 09:51:20;;;;;;;13.98;6.28;;;31.10;58.70;;;;;;5070519;28;20377;-72
2021/06/19 09:54:07;;;;;;;15.10;6.82;;;31.30;57.80;;;;;;5064269;28;20101;-74
2021/06/19 09:57:02;;;;;;;9.85;5.82;;;31.50;57.00;;;;;;5073286;28;20040;-73
2021/06/19 09:59:29;;;;;;;9.35;5.97;;;31.60;56.90;;;;;;5051385;28;20044;-73
2021/06/19 10:01:56;;;;;;;17.25;6.40;;;31.60;56.90;;;;;;5069337;28;20527;-72
2021/06/19 10:04:24;;;;;;;13.70;6.53;;;31.60;57.30;;;;;;5072588;28;20045;-72
2021/06/19 10:06:51;;;;;;;21.38;6.80;;;31.50;57.30;;;;;;5072097;28;20036;-67
2021/06/19 10:09:17;;;;;;;15.00;6.40;;;31.70;57.00;;;;;;5072854;28;20040;-70
2021/06/19 10:11:46;;;;;;;11.82;6.28;;;31.80;56.90;;;;;;5068457;28;20036;-74
2021/06/19 10:14:17;;;;;;;18.30;7.30;;;31.90;56.40;;;;;;5072934;28;20037;-71
2021/06/19 10:16:52;;;;;;;14.13;6.93;;;31.80;56.40;;;;;;5064259;28;20103;-72
2021/06/19 10:19:19;;;;;;;22.75;6.60;;;31.80;56.20;;;;;;5072689;28;20064;-69
2021/06/19 10:21:47;;;;;;;13.80;6.72;;;31.70;56.90;;;;;;5066719;28;20033;-68
2021/06/19 10:24:13;;;;;;;13.20;6.70;;;31.70;57.70;;;;;;5071868;28;20043;-76
2021/06/19 10:26:39;;;;;;;17.77;6.80;;;31.70;57.20;;;;;;5072113;28;20122;-79
2021/06/19 10:29:07;;;;;;;15.13;6.53;;;31.70;57.00;;;;;;5072610;28;20029;-76
2021/06/19 10:31:45;;;;;;;14.63;6.35;;;31.80;56.90;;;;;;5072443;28;20033;-71
2021/06/19 10:34:22;;;;;;;20.40;7.28;;;31.90;57.10;;;;;;5072350;28;20024;-73
2021/06/19 10:36:49;;;;;;;13.40;6.50;;;32.20;56.90;;;;;;5062084;28;20440;-73
2021/06/19 10:39:34;;;;;;;11.13;6.53;;;32.30;56.10;;;;;;5054481;28;20033;-68
2021/06/19 10:42:00;;;;;;;15.55;6.68;;;32.40;55.50;;;;;;5073341;28;20486;-72
2021/06/19 10:44:51;;;;;;;15.85;6.43;;;32.50;55.50;;;;;;5071766;28;20100;-68
2021/06/19 10:47:22;;;;;;;14.63;6.35;;;32.50;55.20;;;;;;5071353;28;20032;-67
2021/06/19 10:49:48;;;;;;;18.08;6.47;;;32.60;56.20;;;;;;5066667;28;20112;-68
2021/06/19 10:52:27;;;;;;;18.73;7.40;;;32.60;55.10;;;;;;5071568;28;20425;-68
2021/06/19 10:55:20;;;;;;;18.02;6.25;;;32.60;54.20;;;;;;5071203;28;20044;-75
2021/06/19 10:57:51;;;;;;;15.13;6.22;;;32.50;54.70;;;;;;5062281;28;20056;-75
2021/06/19 11:00:27;;;;;;;11.15;6.32;;;32.60;54.20;;;;;;5071377;28;20439;-74
2021/06/19 11:02:55;;;;;;;15.10;6.38;;;32.60;54.60;;;;;;5071029;28;20312;-79
2021/06/19 11:05:40;;;;;;;16.05;6.97;;;32.70;54.20;;;;;;5072200;28;20043;-78
2021/06/19 11:08:07;;;;;;;14.63;6.32;;;32.80;53.80;;;;;;5064855;28;20127;-79
2021/06/19 11:10:45;;;;;;;16.15;5.95;;;32.80;53.10;;;;;;5072866;28;20060;-79
2021/06/19 11:13:29;;;;;;;14.32;5.70;;;32.90;52.90;;;;;;5070946;28;20060;-79
2021/06/19 11:15:57;;;;;;;15.35;6.35;;;33.00;51.30;;;;;;5070843;28;20553;-82
2021/06/19 11:18:48;;;;;;;13.82;5.43;;;33.00;52.10;;;;;;5071711;28;20111;-82
2021/06/19 11:21:21;;;;;;;17.35;6.05;;;33.10;52.30;;;;;;5071928;28;20585;-82
2021/06/19 11:24:01;;;;;;;14.55;6.38;;;33.30;52.50;;;;;;5077801;28;20096;-84
2021/06/19 11:26:57;;;;;;;17.20;6.60;;;33.40;52.20;;;;;;5065269;28;20108;-81
2021/06/19 11:29:41;;;;;;;11.63;5.97;;;33.60;52.60;;;;;;5072065;28;20116;-81
2021/06/19 11:32:27;;;;;;;15.98;6.28;;;33.80;51.90;;;;;;5070957;28;20461;-71
2021/06/19 11:34:55;;;;;;;15.10;5.95;;;34.10;51.10;;;;;;5069906;28;21781;-75
2021/06/19 11:37:20;;;;;;;13.10;5.60;;;34.30;50.60;;;;;;5071378;28;20024;-76
2021/06/19 11:39:46;;;;;;;12.30;5.45;;;34.30;49.50;;;;;;5044299;28;20028;-75
2021/06/19 11:42:13;;;;;;;16.63;6.07;;;34.20;50.10;;;;;;5069738;28;20477;-81
2021/06/19 11:44:47;;;;;;;10.88;5.60;;;34.20;51.60;;;;;;5054031;28;20078;-78
2021/06/19 11:47:13;;;;;;;14.82;5.65;;;34.10;50.90;;;;;;5071081;28;20040;-82
2021/06/19 11:49:42;;;;;;;15.65;5.93;;;34.10;49.50;;;;;;5070664;28;20386;-77
2021/06/19 11:52:11;;;;;;;12.02;6.63;;;34.10;50.80;;;;;;5052344;28;20158;-77
2021/06/19 11:54:42;;;;;;;15.73;6.35;;;34.10;51.40;;;;;;5070291;28;20060;-81
2021/06/19 11:57:10;;;;;;;15.25;6.50;;;34.20;51.30;;;;;;5057199;28;20028;-76
2021/06/19 11:59:35;;;;;;;13.85;6.47;;;34.30;50.90;;;;;;5070380;28;20151;-69
2021/06/19 12:02:01;;;;;;;16.13;5.38;;;34.30;49.20;;;;;;5069580;28;20111;-69
2021/06/19 12:04:31;;;;;;;16.30;6.03;;;34.20;49.50;;;;;;5070981;28;20028;-69
2021/06/19 12:07:01;;;;;;;15.38;6.25;;;34.30;49.70;;;;;;5068066;28;20119;-69
2021/06/19 12:09:31;;;;;;;;;;;34.50;49.60;;;;;;5069421;28;20048;-68
2021/06/19 12:12:01;;;;;;;;;;;34.80;48.60;;;;;;5046585;28;19916;-69
2021/06/19 12:14:32;;;;;;;16.58;6.05;;;35.00;48.60;;;;;;5053315;28;19923;-69
2021/06/19 12:17:05;;;;;;;14.50;5.60;;;35.10;46.60;;;;;;5070087;28;20390;-69
2021/06/19 12:19:33;;;;;;;15.07;5.60;;;35.00;45.30;;;;;;5071078;28;20031;-69
2021/06/19 12:22:05;;;;;;;14.38;5.05;;;35.00;45.60;;;;;;5069489;28;20473;-69
2021/06/19 12:24:39;;;;;;;15.68;4.97;;;35.10;44.80;;;;;;5070599;28;20435;-68
2021/06/19 12:27:06;;;;;;;11.88;4.72;;;35.40;44.60;;;;;;5070006;28;20485;-69
2021/06/19 12:29:39;;;;;;;16.67;5.38;;;35.50;44.40;;;;;;5071047;28;20028;-68
2021/06/19 12:32:27;;;;;;;10.40;4.30;;;35.90;42.10;;;;;;5070093;28;20039;-69
2021/06/19 12:34:57;;;;;;;15.27;4.68;;;36.00;41.70;;;;;;5070296;28;20025;-69
2021/06/19 12:37:27;;;;;;;11.07;4.50;;;36.20;41.10;;;;;;5063404;28;20025;-69
2021/06/19 12:39:53;;;;;;;;;;;36.30;40.90;;;;;;5070387;28;20490;-69
2021/06/19 12:42:43;;;;;;;12.35;4.55;;;36.30;41.00;;;;;;5070625;28;19995;-70
2021/06/19 12:45:20;;;;;;;14.32;4.40;;;36.30;40.60;;;;;;5066060;28;20647;-71
2021/06/19 12:47:48;;;;;;;12.65;4.88;;;36.30;38.80;;;;;;5070291;28;20033;-72
2021/06/19 12:50:20;;;;;;;16.65;5.63;;;36.40;39.40;;;;;;5070806;28;20115;-76